sensor_id;sensor_type;location;lat;lon;timestamp;temperature;humidity
51902;DHT22;37929;53.218;6.548;2022-09-20T00:01:19;10.30;99.90
51902;DHT22;37929;53.218;6.548;2022-09-20T00:03:49;10.30;99.90
51902;DHT22;37929;53.218;6.548;2022-09-20T00:06:17;10.30;99.90
51902;DHT22;37929;53.218;6.548;2022-09-20T00:08:45;11.00;99.90
51902;DHT22;37929;53.218;6.548;2022-09-20T00:11:14;10.20;99.90
51902;DHT22;37929;53.218;6.548;2022-09-20T00:13:41;10.30;99.90
51902;DHT22;37929;53.218;6.548;2022-09-20T00:16:10;10.20;99.90
51902;DHT22;37929;53.218;6.548;2022-09-20T00:18:36;10.20;99.90
51902;DHT22;37929;53.218;6.548;2022-09-20T00:21:03;10.20;99.90
51902;DHT22;37929;53.218;6.548;2022-09-20T00:23:29;10.20;99.90
51902;DHT22;37929;53.218;6.548;2022-09-20T00:25:57;10.20;99.90
51902;DHT22;37929;53.218;6.548;2022-09-20T00:28:23;10.10;99.90
51902;DHT22;37929;53.218;6.548;2022-09-20T00:30:50;10.10;99.90
51902;DHT22;37929;53.218;6.548;2022-09-20T00:33:16;10.10;99.90
51902;DHT22;37929;53.218;6.548;2022-09-20T00:35:43;10.40;99.90
51902;DHT22;37929;53.218;6.548;2022-09-20T00:38:09;10.00;99.90
51902;DHT22;37929;53.218;6.548;2022-09-20T00:40:36;10.00;99.90
51902;DHT22;37929;53.218;6.548;2022-09-20T00:43:02;10.00;99.90
51902;DHT22;37929;53.218;6.548;2022-09-20T00:45:29;9.90;99.90
51902;DHT22;37929;53.218;6.548;2022-09-20T00:48:02;9.90;99.90
51902;DHT22;37929;53.218;6.548;2022-09-20T00:53:06;10.50;99.90
51902;DHT22;37929;53.218;6.548;2022-09-20T00:55:36;9.80;99.90
51902;DHT22;37929;53.218;6.548;2022-09-20T00:58:03;9.80;99.90
51902;DHT22;37929;53.218;6.548;2022-09-20T01:00:30;9.80;99.90
51902;DHT22;37929;53.218;6.548;2022-09-20T01:03:00;9.80;99.90
51902;DHT22;37929;53.218;6.548;2022-09-20T01:05:27;9.70;99.90
51902;DHT22;37929;53.218;6.548;2022-09-20T01:07:53;9.70;99.90
51902;DHT22;37929;53.218;6.548;2022-09-20T01:10:20;9.60;99.90
51902;DHT22;37929;53.218;6.548;2022-09-20T01:12:48;9.60;99.90
51902;DHT22;37929;53.218;6.548;2022-09-20T01:15:15;9.60;99.90
51902;DHT22;37929;53.218;6.548;2022-09-20T01:17:47;9.60;99.90
51902;DHT22;37929;53.218;6.548;2022-09-20T01:20:21;9.50;99.90
51902;DHT22;37929;53.218;6.548;2022-09-20T01:28:47;9.50;99.90
51902;DHT22;37929;53.218;6.548;2022-09-20T01:31:32;9.50;99.90
51902;DHT22;37929;53.218;6.548;2022-09-20T01:36:43;9.40;99.90
51902;DHT22;37929;53.218;6.548;2022-09-20T01:42:06;9.30;99.90
51902;DHT22;37929;53.218;6.548;2022-09-20T01:50:31;9.10;99.90
51902;DHT22;37929;53.218;6.548;2022-09-20T01:58:59;9.00;99.90
51902;DHT22;37929;53.218;6.548;2022-09-20T02:10:52;9.00;99.90
51902;DHT22;37929;53.218;6.548;2022-09-20T02:13:47;9.00;99.90
51902;DHT22;37929;53.218;6.548;2022-09-20T02:16:39;9.10;99.90
51902;DHT22;37929;53.218;6.548;2022-09-20T02:19:39;9.10;99.90
51902;DHT22;37929;53.218;6.548;2022-09-20T02:22:43;9.10;99.90
51902;DHT22;37929;53.218;6.548;2022-09-20T02:25:37;9.00;99.90
51902;DHT22;37929;53.218;6.548;2022-09-20T02:36:35;9.00;99.90
51902;DHT22;37929;53.218;6.548;2022-09-20T02:39:19;9.10;99.90
51902;DHT22;37929;53.218;6.548;2022-09-20T02:46:51;9.10;99.90
51902;DHT22;37929;53.218;6.548;2022-09-20T02:49:51;9.10;99.90
51902;DHT22;37929;53.218;6.548;2022-09-20T02:55:41;8.90;99.90
51902;DHT22;37929;53.218;6.548;2022-09-20T02:58:32;8.90;99.90
51902;DHT22;37929;53.218;6.548;2022-09-20T03:04:42;8.90;99.90
51902;DHT22;37929;53.218;6.548;2022-09-20T03:13:12;8.80;99.90
51902;DHT22;37929;53.218;6.548;2022-09-20T03:39:49;8.80;99.90
51902;DHT22;37929;53.218;6.548;2022-09-20T03:42:22;8.80;99.90
51902;DHT22;37929;53.218;6.548;2022-09-20T04:09:50;9.40;99.90
51902;DHT22;37929;53.218;6.548;2022-09-20T04:12:48;9.10;99.90
51902;DHT22;37929;53.218;6.548;2022-09-20T04:15:41;9.10;99.90
51902;DHT22;37929;53.218;6.548;2022-09-20T04:21:55;9.20;99.90
51902;DHT22;37929;53.218;6.548;2022-09-20T04:27:43;9.60;99.90
51902;DHT22;37929;53.218;6.548;2022-09-20T04:29:54;9.80;99.90
51902;DHT22;37929;53.218;6.548;2022-09-20T04:35:27;9.20;99.90
51902;DHT22;37929;53.218;6.548;2022-09-20T04:38:17;9.20;99.90
51902;DHT22;37929;53.218;6.548;2022-09-20T05:00:23;9.20;99.90
51902;DHT22;37929;53.218;6.548;2022-09-20T05:28:02;9.50;99.90
51902;DHT22;37929;53.218;6.548;2022-09-20T05:30:49;9.40;99.90
51902;DHT22;37929;53.218;6.548;2022-09-20T05:33:45;9.50;99.90
51902;DHT22;37929;53.218;6.548;2022-09-20T05:36:18;9.50;99.90
51902;DHT22;37929;53.218;6.548;2022-09-20T05:38:50;9.60;99.90
51902;DHT22;37929;53.218;6.548;2022-09-20T05:46:43;9.70;99.90
51902;DHT22;37929;53.218;6.548;2022-09-20T05:49:40;9.70;99.90
51902;DHT22;37929;53.218;6.548;2022-09-20T05:52:28;9.80;99.90
51902;DHT22;37929;53.218;6.548;2022-09-20T05:58:16;9.80;99.90
51902;DHT22;37929;53.218;6.548;2022-09-20T06:00:54;9.80;99.90
51902;DHT22;37929;53.218;6.548;2022-09-20T06:06:17;9.80;99.90
51902;DHT22;37929;53.218;6.548;2022-09-20T06:14:57;9.80;99.90
51902;DHT22;37929;53.218;6.548;2022-09-20T06:17:50;9.80;99.90
51902;DHT22;37929;53.218;6.548;2022-09-20T06:20:23;9.80;99.90
51902;DHT22;37929;53.218;6.548;2022-09-20T06:22:53;9.90;99.90
51902;DHT22;37929;53.218;6.548;2022-09-20T06:25:45;10.00;99.90
51902;DHT22;37929;53.218;6.548;2022-09-20T06:28:13;10.00;99.90
51902;DHT22;37929;53.218;6.548;2022-09-20T06:30:48;10.30;99.90
51902;DHT22;37929;53.218;6.548;2022-09-20T06:35:58;10.30;99.90
51902;DHT22;37929;53.218;6.548;2022-09-20T06:39:17;10.40;99.90
51902;DHT22;37929;53.218;6.548;2022-09-20T06:42:05;10.40;99.90
51902;DHT22;37929;53.218;6.548;2022-09-20T06:44:31;10.50;99.90
51902;DHT22;37929;53.218;6.548;2022-09-20T06:46:57;10.50;99.90
51902;DHT22;37929;53.218;6.548;2022-09-20T06:49:24;10.50;99.90
51902;DHT22;37929;53.218;6.548;2022-09-20T06:51:53;10.50;99.90
51902;DHT22;37929;53.218;6.548;2022-09-20T06:54:20;10.50;99.90
51902;DHT22;37929;53.218;6.548;2022-09-20T06:56:48;10.50;99.90
51902;DHT22;37929;53.218;6.548;2022-09-20T06:59:15;10.50;99.90
51902;DHT22;37929;53.218;6.548;2022-09-20T07:01:44;10.80;99.90
51902;DHT22;37929;53.218;6.548;2022-09-20T07:04:12;10.60;99.90
51902;DHT22;37929;53.218;6.548;2022-09-20T07:06:38;10.50;99.90
51902;DHT22;37929;53.218;6.548;2022-09-20T07:09:05;10.60;99.90
51902;DHT22;37929;53.218;6.548;2022-09-20T07:11:31;10.60;99.90
51902;DHT22;37929;53.218;6.548;2022-09-20T07:13:58;11.10;99.90
51902;DHT22;37929;53.218;6.548;2022-09-20T07:16:24;10.60;99.90
51902;DHT22;37929;53.218;6.548;2022-09-20T07:18:51;10.60;99.90
51902;DHT22;37929;53.218;6.548;2022-09-20T07:21:18;10.70;99.90
51902;DHT22;37929;53.218;6.548;2022-09-20T07:23:45;10.70;99.90
51902;DHT22;37929;53.218;6.548;2022-09-20T07:26:33;10.80;99.90
51902;DHT22;37929;53.218;6.548;2022-09-20T07:28:59;10.80;99.90
51902;DHT22;37929;53.218;6.548;2022-09-20T07:31:27;10.80;99.90
51902;DHT22;37929;53.218;6.548;2022-09-20T07:33:53;10.80;99.90
51902;DHT22;37929;53.218;6.548;2022-09-20T07:36:19;10.80;99.90
51902;DHT22;37929;53.218;6.548;2022-09-20T07:38:49;10.80;99.90
51902;DHT22;37929;53.218;6.548;2022-09-20T07:41:15;10.80;99.90
51902;DHT22;37929;53.218;6.548;2022-09-20T07:43:43;10.80;99.90
51902;DHT22;37929;53.218;6.548;2022-09-20T07:46:10;10.90;99.90
51902;DHT22;37929;53.218;6.548;2022-09-20T07:48:39;10.90;99.90
51902;DHT22;37929;53.218;6.548;2022-09-20T07:51:08;11.30;99.90
51902;DHT22;37929;53.218;6.548;2022-09-20T07:53:34;11.60;99.90
51902;DHT22;37929;53.218;6.548;2022-09-20T07:58:30;11.20;99.90
51902;DHT22;37929;53.218;6.548;2022-09-20T08:01:01;11.30;99.90
51902;DHT22;37929;53.218;6.548;2022-09-20T08:03:31;11.40;99.90
51902;DHT22;37929;53.218;6.548;2022-09-20T08:05:59;11.50;99.90
51902;DHT22;37929;53.218;6.548;2022-09-20T08:08:25;11.70;99.90
51902;DHT22;37929;53.218;6.548;2022-09-20T08:10:51;11.70;99.90
51902;DHT22;37929;53.218;6.548;2022-09-20T08:13:16;11.80;99.90
51902;DHT22;37929;53.218;6.548;2022-09-20T08:15:42;11.90;99.90
51902;DHT22;37929;53.218;6.548;2022-09-20T08:18:08;12.20;99.90
51902;DHT22;37929;53.218;6.548;2022-09-20T08:20:37;12.50;99.90
51902;DHT22;37929;53.218;6.548;2022-09-20T08:23:06;12.20;99.90
51902;DHT22;37929;53.218;6.548;2022-09-20T08:25:33;12.30;99.90
51902;DHT22;37929;53.218;6.548;2022-09-20T08:27:59;12.40;99.90
51902;DHT22;37929;53.218;6.548;2022-09-20T08:30:25;12.50;99.90
51902;DHT22;37929;53.218;6.548;2022-09-20T08:32:51;12.50;99.90
51902;DHT22;37929;53.218;6.548;2022-09-20T08:35:18;12.60;99.90
51902;DHT22;37929;53.218;6.548;2022-09-20T08:37:44;12.70;99.90
51902;DHT22;37929;53.218;6.548;2022-09-20T08:40:14;12.80;99.90
51902;DHT22;37929;53.218;6.548;2022-09-20T08:42:41;12.90;99.90
51902;DHT22;37929;53.218;6.548;2022-09-20T08:45:15;13.00;99.90
51902;DHT22;37929;53.218;6.548;2022-09-20T08:47:47;13.10;99.90
51902;DHT22;37929;53.218;6.548;2022-09-20T08:50:14;13.10;99.90
51902;DHT22;37929;53.218;6.548;2022-09-20T08:52:44;13.20;99.90
51902;DHT22;37929;53.218;6.548;2022-09-20T08:55:17;13.20;99.90
51902;DHT22;37929;53.218;6.548;2022-09-20T08:57:46;13.10;99.90
51902;DHT22;37929;53.218;6.548;2022-09-20T09:00:22;13.10;99.90
51902;DHT22;37929;53.218;6.548;2022-09-20T09:02:55;13.10;99.90
51902;DHT22;37929;53.218;6.548;2022-09-20T09:07:58;13.30;99.90
51902;DHT22;37929;53.218;6.548;2022-09-20T09:10:29;13.40;99.90
51902;DHT22;37929;53.218;6.548;2022-09-20T09:12:58;13.40;99.90
51902;DHT22;37929;53.218;6.548;2022-09-20T09:15:32;13.50;99.90
51902;DHT22;37929;53.218;6.548;2022-09-20T09:17:58;13.70;99.90
51902;DHT22;37929;53.218;6.548;2022-09-20T09:20:24;13.80;99.90
51902;DHT22;37929;53.218;6.548;2022-09-20T09:23:04;13.70;99.90
51902;DHT22;37929;53.218;6.548;2022-09-20T09:25:38;13.70;99.90
51902;DHT22;37929;53.218;6.548;2022-09-20T09:30:39;13.90;99.90
51902;DHT22;37929;53.218;6.548;2022-09-20T09:35:53;13.90;99.90
51902;DHT22;37929;53.218;6.548;2022-09-20T09:38:23;14.00;99.90
51902;DHT22;37929;53.218;6.548;2022-09-20T09:40:55;14.00;99.90
51902;DHT22;37929;53.218;6.548;2022-09-20T09:43:28;14.00;99.90
51902;DHT22;37929;53.218;6.548;2022-09-20T09:45:58;14.10;99.90
51902;DHT22;37929;53.218;6.548;2022-09-20T09:48:40;14.10;99.90
51902;DHT22;37929;53.218;6.548;2022-09-20T09:51:12;14.10;99.90
51902;DHT22;37929;53.218;6.548;2022-09-20T09:53:41;14.10;99.90
51902;DHT22;37929;53.218;6.548;2022-09-20T10:01:53;14.20;99.90
51902;DHT22;37929;53.218;6.548;2022-09-20T10:07:48;14.20;99.90
51902;DHT22;37929;53.218;6.548;2022-09-20T10:13:03;14.20;99.90
51902;DHT22;37929;53.218;6.548;2022-09-20T10:36:52;14.50;99.90
51902;DHT22;37929;53.218;6.548;2022-09-20T10:42:11;14.60;99.90
51902;DHT22;37929;53.218;6.548;2022-09-20T10:45:12;14.70;99.90
51902;DHT22;37929;53.218;6.548;2022-09-20T10:50:46;14.90;99.90
51902;DHT22;37929;53.218;6.548;2022-09-20T10:56:14;15.00;99.90
51902;DHT22;37929;53.218;6.548;2022-09-20T10:59:06;15.00;99.90
51902;DHT22;37929;53.218;6.548;2022-09-20T11:07:25;14.90;99.90
51902;DHT22;37929;53.218;6.548;2022-09-20T11:10:13;14.90;99.90
51902;DHT22;37929;53.218;6.548;2022-09-20T11:13:00;14.90;99.90
51902;DHT22;37929;53.218;6.548;2022-09-20T11:15:42;14.90;99.90
51902;DHT22;37929;53.218;6.548;2022-09-20T11:18:37;14.90;99.90
51902;DHT22;37929;53.218;6.548;2022-09-20T11:26:37;15.00;99.90
51902;DHT22;37929;53.218;6.548;2022-09-20T11:31:49;15.00;99.90
51902;DHT22;37929;53.218;6.548;2022-09-20T11:34:22;15.00;99.90
51902;DHT22;37929;53.218;6.548;2022-09-20T11:36:55;15.10;99.90
51902;DHT22;37929;53.218;6.548;2022-09-20T11:42:02;15.30;99.90
51902;DHT22;37929;53.218;6.548;2022-09-20T11:44:30;15.30;99.90
51902;DHT22;37929;53.218;6.548;2022-09-20T11:47:00;15.40;99.90
51902;DHT22;37929;53.218;6.548;2022-09-20T11:49:45;15.40;99.90
51902;DHT22;37929;53.218;6.548;2022-09-20T11:58:08;15.70;99.90
51902;DHT22;37929;53.218;6.548;2022-09-20T12:00:37;15.80;99.90
51902;DHT22;37929;53.218;6.548;2022-09-20T12:03:20;15.70;99.90
51902;DHT22;37929;53.218;6.548;2022-09-20T12:05:55;15.70;99.90
51902;DHT22;37929;53.218;6.548;2022-09-20T12:08:26;15.60;99.90
51902;DHT22;37929;53.218;6.548;2022-09-20T12:11:04;15.50;99.90
51902;DHT22;37929;53.218;6.548;2022-09-20T12:13:34;15.40;99.90
51902;DHT22;37929;53.218;6.548;2022-09-20T12:16:02;15.40;99.90
51902;DHT22;37929;53.218;6.548;2022-09-20T12:18:45;15.30;99.90
51902;DHT22;37929;53.218;6.548;2022-09-20T12:21:13;15.30;99.90
51902;DHT22;37929;53.218;6.548;2022-09-20T12:24:01;15.30;99.90
51902;DHT22;37929;53.218;6.548;2022-09-20T12:26:37;15.20;99.90
51902;DHT22;37929;53.218;6.548;2022-09-20T12:32:28;15.20;99.90
51902;DHT22;37929;53.218;6.548;2022-09-20T12:34:37;15.20;99.90
51902;DHT22;37929;53.218;6.548;2022-09-20T12:39:34;15.20;99.90
51902;DHT22;37929;53.218;6.548;2022-09-20T12:47:17;15.40;99.90
51902;DHT22;37929;53.218;6.548;2022-09-20T12:57:57;15.70;99.90
51902;DHT22;37929;53.218;6.548;2022-09-20T13:00:42;15.70;99.90
51902;DHT22;37929;53.218;6.548;2022-09-20T13:03:34;15.90;99.90
51902;DHT22;37929;53.218;6.548;2022-09-20T13:08:46;15.90;99.90
51902;DHT22;37929;53.218;6.548;2022-09-20T13:11:28;15.80;99.90
51902;DHT22;37929;53.218;6.548;2022-09-20T13:13:54;15.80;99.90
51902;DHT22;37929;53.218;6.548;2022-09-20T13:16:26;15.80;99.90
51902;DHT22;37929;53.218;6.548;2022-09-20T13:19:02;15.90;99.90
51902;DHT22;37929;53.218;6.548;2022-09-20T13:21:31;15.90;99.90
51902;DHT22;37929;53.218;6.548;2022-09-20T13:23:58;15.90;99.90
51902;DHT22;37929;53.218;6.548;2022-09-20T13:26:28;15.90;99.90
51902;DHT22;37929;53.218;6.548;2022-09-20T13:28:57;15.90;99.90
51902;DHT22;37929;53.218;6.548;2022-09-20T13:31:28;16.00;99.90
51902;DHT22;37929;53.218;6.548;2022-09-20T13:33:58;16.00;99.90
51902;DHT22;37929;53.218;6.548;2022-09-20T13:36:36;16.00;99.90
51902;DHT22;37929;53.218;6.548;2022-09-20T13:39:05;16.00;99.90
51902;DHT22;37929;53.218;6.548;2022-09-20T13:41:32;16.00;99.90
51902;DHT22;37929;53.218;6.548;2022-09-20T13:44:00;16.10;99.90
51902;DHT22;37929;53.218;6.548;2022-09-20T13:46:32;16.10;99.90
51902;DHT22;37929;53.218;6.548;2022-09-20T13:49:17;16.10;99.90
51902;DHT22;37929;53.218;6.548;2022-09-20T13:51:46;16.00;99.90
51902;DHT22;37929;53.218;6.548;2022-09-20T13:54:27;16.00;99.90
51902;DHT22;37929;53.218;6.548;2022-09-20T13:57:03;16.00;99.90
51902;DHT22;37929;53.218;6.548;2022-09-20T13:59:39;16.00;99.90
51902;DHT22;37929;53.218;6.548;2022-09-20T14:02:22;15.90;99.90
51902;DHT22;37929;53.218;6.548;2022-09-20T14:04:50;15.80;99.90
51902;DHT22;37929;53.218;6.548;2022-09-20T14:07:17;15.90;99.90
51902;DHT22;37929;53.218;6.548;2022-09-20T14:09:43;15.90;99.90
51902;DHT22;37929;53.218;6.548;2022-09-20T14:12:11;15.80;99.90
51902;DHT22;37929;53.218;6.548;2022-09-20T14:14:38;15.80;99.90
51902;DHT22;37929;53.218;6.548;2022-09-20T14:17:06;15.80;99.90
51902;DHT22;37929;53.218;6.548;2022-09-20T14:19:39;15.80;99.90
51902;DHT22;37929;53.218;6.548;2022-09-20T14:22:06;15.80;99.90
51902;DHT22;37929;53.218;6.548;2022-09-20T14:24:36;15.90;99.90
51902;DHT22;37929;53.218;6.548;2022-09-20T14:29:39;16.00;99.90
51902;DHT22;37929;53.218;6.548;2022-09-20T14:32:23;16.00;99.90
51902;DHT22;37929;53.218;6.548;2022-09-20T14:40:20;16.00;99.90
51902;DHT22;37929;53.218;6.548;2022-09-20T14:42:58;16.10;99.90
51902;DHT22;37929;53.218;6.548;2022-09-20T14:45:32;16.30;99.90
51902;DHT22;37929;53.218;6.548;2022-09-20T14:50:36;16.40;99.90
51902;DHT22;37929;53.218;6.548;2022-09-20T14:58:24;16.20;99.90
51902;DHT22;37929;53.218;6.548;2022-09-20T15:01:04;16.10;99.90
51902;DHT22;37929;53.218;6.548;2022-09-20T15:05:59;16.00;99.90
51902;DHT22;37929;53.218;6.548;2022-09-20T15:08:26;15.90;99.90
51902;DHT22;37929;53.218;6.548;2022-09-20T15:10:52;15.90;99.90
51902;DHT22;37929;53.218;6.548;2022-09-20T15:13:17;15.80;99.90
51902;DHT22;37929;53.218;6.548;2022-09-20T15:15:47;15.70;99.90
51902;DHT22;37929;53.218;6.548;2022-09-20T15:18:26;15.60;99.90
51902;DHT22;37929;53.218;6.548;2022-09-20T15:20:55;15.60;99.90
51902;DHT22;37929;53.218;6.548;2022-09-20T15:23:21;15.50;99.90
51902;DHT22;37929;53.218;6.548;2022-09-20T15:25:51;15.80;99.90
51902;DHT22;37929;53.218;6.548;2022-09-20T15:28:17;15.40;99.90
51902;DHT22;37929;53.218;6.548;2022-09-20T15:30:44;15.30;99.90
51902;DHT22;37929;53.218;6.548;2022-09-20T15:33:11;15.30;99.90
51902;DHT22;37929;53.218;6.548;2022-09-20T15:35:38;15.30;99.90
51902;DHT22;37929;53.218;6.548;2022-09-20T15:38:04;15.20;99.90
51902;DHT22;37929;53.218;6.548;2022-09-20T15:40:33;15.20;99.90
51902;DHT22;37929;53.218;6.548;2022-09-20T15:42:59;15.20;99.90
51902;DHT22;37929;53.218;6.548;2022-09-20T15:45:26;15.10;99.90
51902;DHT22;37929;53.218;6.548;2022-09-20T15:47:53;15.10;99.90
51902;DHT22;37929;53.218;6.548;2022-09-20T15:50:20;15.10;99.90
51902;DHT22;37929;53.218;6.548;2022-09-20T15:52:50;15.10;99.90
51902;DHT22;37929;53.218;6.548;2022-09-20T15:55:20;15.10;99.90
51902;DHT22;37929;53.218;6.548;2022-09-20T15:57:46;15.00;99.90
51902;DHT22;37929;53.218;6.548;2022-09-20T16:00:14;15.00;99.90
51902;DHT22;37929;53.218;6.548;2022-09-20T16:02:42;15.00;99.90
51902;DHT22;37929;53.218;6.548;2022-09-20T16:05:08;15.00;99.90
51902;DHT22;37929;53.218;6.548;2022-09-20T16:07:35;15.00;99.90
51902;DHT22;37929;53.218;6.548;2022-09-20T16:10:01;15.00;99.90
51902;DHT22;37929;53.218;6.548;2022-09-20T16:12:27;14.90;99.90
51902;DHT22;37929;53.218;6.548;2022-09-20T16:14:53;14.90;99.90
51902;DHT22;37929;53.218;6.548;2022-09-20T16:17:18;14.90;99.90
51902;DHT22;37929;53.218;6.548;2022-09-20T16:20:04;14.90;99.90
51902;DHT22;37929;53.218;6.548;2022-09-20T16:22:30;14.90;99.90
51902;DHT22;37929;53.218;6.548;2022-09-20T16:24:58;14.90;99.90
51902;DHT22;37929;53.218;6.548;2022-09-20T16:27:25;14.80;99.90
51902;DHT22;37929;53.218;6.548;2022-09-20T16:29:51;14.80;99.90
51902;DHT22;37929;53.218;6.548;2022-09-20T16:32:17;14.80;99.90
51902;DHT22;37929;53.218;6.548;2022-09-20T16:34:43;15.10;99.90
51902;DHT22;37929;53.218;6.548;2022-09-20T16:37:11;14.80;99.90
51902;DHT22;37929;53.218;6.548;2022-09-20T16:39:40;14.70;99.90
51902;DHT22;37929;53.218;6.548;2022-09-20T16:42:07;14.70;99.90
51902;DHT22;37929;53.218;6.548;2022-09-20T16:44:38;14.70;99.90
51902;DHT22;37929;53.218;6.548;2022-09-20T16:47:07;14.70;99.90
51902;DHT22;37929;53.218;6.548;2022-09-20T16:49:33;14.70;99.90
51902;DHT22;37929;53.218;6.548;2022-09-20T16:52:02;14.70;99.90
51902;DHT22;37929;53.218;6.548;2022-09-20T16:54:28;14.70;99.90
51902;DHT22;37929;53.218;6.548;2022-09-20T16:56:54;14.60;99.90
51902;DHT22;37929;53.218;6.548;2022-09-20T16:59:20;14.60;99.90
51902;DHT22;37929;53.218;6.548;2022-09-20T17:01:47;14.60;99.90
51902;DHT22;37929;53.218;6.548;2022-09-20T17:04:13;14.60;99.90
51902;DHT22;37929;53.218;6.548;2022-09-20T17:06:42;14.50;99.90
51902;DHT22;37929;53.218;6.548;2022-09-20T17:09:08;14.60;99.90
51902;DHT22;37929;53.218;6.548;2022-09-20T17:11:37;14.60;99.90
51902;DHT22;37929;53.218;6.548;2022-09-20T17:14:04;14.50;99.90
51902;DHT22;37929;53.218;6.548;2022-09-20T17:16:34;14.50;99.90
51902;DHT22;37929;53.218;6.548;2022-09-20T17:19:02;14.50;99.90
51902;DHT22;37929;53.218;6.548;2022-09-20T17:21:32;14.50;99.90
51902;DHT22;37929;53.218;6.548;2022-09-20T17:23:59;14.40;99.90
51902;DHT22;37929;53.218;6.548;2022-09-20T17:26:33;14.40;99.90
51902;DHT22;37929;53.218;6.548;2022-09-20T17:29:01;14.40;99.90
51902;DHT22;37929;53.218;6.548;2022-09-20T17:31:29;14.40;99.90
51902;DHT22;37929;53.218;6.548;2022-09-20T17:33:57;14.30;99.90
51902;DHT22;37929;53.218;6.548;2022-09-20T17:36:31;14.30;99.90
51902;DHT22;37929;53.218;6.548;2022-09-20T17:38:59;14.20;99.90
51902;DHT22;37929;53.218;6.548;2022-09-20T17:41:26;14.20;99.90
51902;DHT22;37929;53.218;6.548;2022-09-20T17:43:53;14.20;99.90
51902;DHT22;37929;53.218;6.548;2022-09-20T17:46:30;14.20;99.90
51902;DHT22;37929;53.218;6.548;2022-09-20T17:49:03;14.10;99.90
51902;DHT22;37929;53.218;6.548;2022-09-20T17:51:32;14.10;99.90
51902;DHT22;37929;53.218;6.548;2022-09-20T17:53:59;14.10;99.90
51902;DHT22;37929;53.218;6.548;2022-09-20T17:56:26;14.00;99.90
51902;DHT22;37929;53.218;6.548;2022-09-20T17:59:03;13.90;99.90
51902;DHT22;37929;53.218;6.548;2022-09-20T18:01:29;13.90;99.90
51902;DHT22;37929;53.218;6.548;2022-09-20T18:03:59;13.80;99.90
51902;DHT22;37929;53.218;6.548;2022-09-20T18:06:28;13.70;99.90
51902;DHT22;37929;53.218;6.548;2022-09-20T18:08:55;13.70;99.90
51902;DHT22;37929;53.218;6.548;2022-09-20T18:11:34;13.60;99.90
51902;DHT22;37929;53.218;6.548;2022-09-20T18:14:00;13.60;99.90
51902;DHT22;37929;53.218;6.548;2022-09-20T18:16:27;13.50;99.90
51902;DHT22;37929;53.218;6.548;2022-09-20T18:18:53;13.50;99.90
51902;DHT22;37929;53.218;6.548;2022-09-20T18:21:21;13.40;99.90
51902;DHT22;37929;53.218;6.548;2022-09-20T18:23:48;13.40;99.90
51902;DHT22;37929;53.218;6.548;2022-09-20T18:26:20;13.30;99.90
51902;DHT22;37929;53.218;6.548;2022-09-20T18:29:05;13.30;99.90
51902;DHT22;37929;53.218;6.548;2022-09-20T18:31:37;13.20;99.90
51902;DHT22;37929;53.218;6.548;2022-09-20T18:34:05;13.20;99.90
51902;DHT22;37929;53.218;6.548;2022-09-20T18:36:36;13.20;99.90
51902;DHT22;37929;53.218;6.548;2022-09-20T18:39:04;13.10;99.90
51902;DHT22;37929;53.218;6.548;2022-09-20T18:41:31;13.10;99.90
51902;DHT22;37929;53.218;6.548;2022-09-20T18:43:59;13.10;99.90
51902;DHT22;37929;53.218;6.548;2022-09-20T18:46:26;13.10;99.90
51902;DHT22;37929;53.218;6.548;2022-09-20T18:48:55;13.10;99.90
51902;DHT22;37929;53.218;6.548;2022-09-20T18:51:23;13.10;99.90
51902;DHT22;37929;53.218;6.548;2022-09-20T18:53:49;13.00;99.90
51902;DHT22;37929;53.218;6.548;2022-09-20T18:56:19;13.00;99.90
51902;DHT22;37929;53.218;6.548;2022-09-20T18:58:51;12.90;99.90
51902;DHT22;37929;53.218;6.548;2022-09-20T19:15:44;12.70;99.90
51902;DHT22;37929;53.218;6.548;2022-09-20T19:26:24;12.60;99.90
51902;DHT22;37929;53.218;6.548;2022-09-20T19:28:54;12.60;99.90
51902;DHT22;37929;53.218;6.548;2022-09-20T19:33:52;12.50;99.90
51902;DHT22;37929;53.218;6.548;2022-09-20T19:36:22;12.50;99.90
51902;DHT22;37929;53.218;6.548;2022-09-20T19:39:13;12.50;99.90
51902;DHT22;37929;53.218;6.548;2022-09-20T19:50:29;12.40;99.90
51902;DHT22;37929;53.218;6.548;2022-09-20T19:53:01;12.30;99.90
51902;DHT22;37929;53.218;6.548;2022-09-20T19:55:30;12.30;99.90
51902;DHT22;37929;53.218;6.548;2022-09-20T19:57:57;12.30;99.90
51902;DHT22;37929;53.218;6.548;2022-09-20T20:00:23;12.30;99.90
51902;DHT22;37929;53.218;6.548;2022-09-20T20:02:49;12.20;99.90
51902;DHT22;37929;53.218;6.548;2022-09-20T20:05:20;12.20;99.90
51902;DHT22;37929;53.218;6.548;2022-09-20T20:10:48;12.10;99.90
51902;DHT22;37929;53.218;6.548;2022-09-20T20:13:40;12.10;99.90
51902;DHT22;37929;53.218;6.548;2022-09-20T20:24:56;12.00;99.90
51902;DHT22;37929;53.218;6.548;2022-09-20T20:27:22;11.90;99.90
51902;DHT22;37929;53.218;6.548;2022-09-20T20:29:49;11.90;99.90
51902;DHT22;37929;53.218;6.548;2022-09-20T20:32:15;11.90;99.90
51902;DHT22;37929;53.218;6.548;2022-09-20T20:34:41;11.90;99.90
51902;DHT22;37929;53.218;6.548;2022-09-20T20:37:07;11.80;99.90
51902;DHT22;37929;53.218;6.548;2022-09-20T20:39:33;11.80;99.90
51902;DHT22;37929;53.218;6.548;2022-09-20T20:42:01;11.80;99.90
51902;DHT22;37929;53.218;6.548;2022-09-20T20:44:31;11.80;99.90
51902;DHT22;37929;53.218;6.548;2022-09-20T20:47:01;11.80;99.90
51902;DHT22;37929;53.218;6.548;2022-09-20T20:49:26;11.80;99.90
51902;DHT22;37929;53.218;6.548;2022-09-20T20:51:52;11.80;99.90
51902;DHT22;37929;53.218;6.548;2022-09-20T20:54:18;11.80;99.90
51902;DHT22;37929;53.218;6.548;2022-09-20T20:56:45;12.10;99.90
51902;DHT22;37929;53.218;6.548;2022-09-20T20:59:11;11.70;99.90
51902;DHT22;37929;53.218;6.548;2022-09-20T21:01:39;11.70;99.90
51902;DHT22;37929;53.218;6.548;2022-09-20T21:04:11;11.60;99.90
51902;DHT22;37929;53.218;6.548;2022-09-20T21:06:38;11.70;99.90
51902;DHT22;37929;53.218;6.548;2022-09-20T21:09:08;11.70;99.90
51902;DHT22;37929;53.218;6.548;2022-09-20T21:11:39;11.60;99.90
51902;DHT22;37929;53.218;6.548;2022-09-20T21:14:08;11.70;99.90
51902;DHT22;37929;53.218;6.548;2022-09-20T21:16:40;11.60;99.90
51902;DHT22;37929;53.218;6.548;2022-09-20T21:19:11;11.60;99.90
51902;DHT22;37929;53.218;6.548;2022-09-20T21:21:40;11.60;99.90
51902;DHT22;37929;53.218;6.548;2022-09-20T21:24:11;11.50;99.90
51902;DHT22;37929;53.218;6.548;2022-09-20T21:26:38;11.50;99.90
51902;DHT22;37929;53.218;6.548;2022-09-20T21:29:06;11.50;99.90
51902;DHT22;37929;53.218;6.548;2022-09-20T21:31:41;11.60;99.90
51902;DHT22;37929;53.218;6.548;2022-09-20T21:34:08;11.60;99.90
51902;DHT22;37929;53.218;6.548;2022-09-20T21:36:35;11.70;99.90
51902;DHT22;37929;53.218;6.548;2022-09-20T21:39:02;11.70;99.90
51902;DHT22;37929;53.218;6.548;2022-09-20T21:41:30;11.70;99.90
51902;DHT22;37929;53.218;6.548;2022-09-20T21:44:00;11.70;99.90